• Join FlightAware (Why Join?)
  • Login
  • US Flag 
04:57PM EDT


 

Airport Tracker/Info


-or-


 

Live Flight TrackerFlight Track Log ✈ RLI811 ✈ 11-Jul-2013 ✈ KBDL - KDXR

Flight Track Log - Related Links

Times and Time Zones

All times are in EDT time to prevent confusion due to time zone crossing. See the RLI811 flight status page for this flight to view local times or setup timezone preferences in your user account.

Time Position Orientation Groundspeed Altitude Reporting Facility
EDT Latitude Longitude Course Direction KTS MPH feet Rate Location/Type
12:58PM 41.9125 -72.7078 206° Southwest 122 140 1,600  Level Boston Center
12:59PM 41.8644 -72.7106 182° South 125 144 3,400 1,200 Climbing Boston Center
01:00PM 41.8353 -72.7103 180° South 120 138 4,400 1,080 Climbing Boston Center
01:01PM 41.7997 -72.7103 180° South 126 145 5,500 480 Climbing Boston Center
01:02PM 41.7622 -72.7350 206° Southwest 179 206 5,400 -180 Descending Boston Center
01:03PM 41.7414 -72.7822 239° Southwest 184 212 5,200 -420 Descending Boston Center
01:04PM 41.7161 -72.8433 241° Southwest 184 212 4,700 -420 Descending Boston Center
01:05PM 41.6847 -72.9014 234° Southwest 187 215 4,400 -300 Descending Boston Center
01:08PM 41.6560 -72.9552 234° Southwest  Level Estimated
01:15PM 41.5045 -73.2369 234° Southwest  Level Estimated
01:16PM 41.4828 -73.2770 234° Southwest  Level Estimated
01:17PM 41.4611 -73.3172 234° Southwest  Level Estimated
01:18PM 41.4394 -73.3572 234° Southwest  Level Estimated
01:19PM 41.4177 -73.3973 234° Southwest  Level Estimated
01:20PM 41.3959 -73.4373 234° Southwest  Level Estimated
01:21PM 41.3742 -73.4773 234° Southwest  Level Estimated
01:22PM 41.3715 -73.4822 234° Southwest  Level Estimated
01:23PM 41.3715 -73.4822 236° Southwest  Level Estimated
01:24PM 41.3715 -73.4822 236° Southwest  Level Estimated
01:25PM 41.3715 -73.4822 236° Southwest  Level Estimated
01:26PM 41.3715 -73.4822 236° Southwest  Level Estimated
01:27PM 41.3715 -73.4822 236° Southwest  Level Estimated
01:28PM 41.3715 -73.4822 236° Southwest  Level Estimated
01:29PM 41.3715 -73.4822 236° Southwest  Level Estimated
01:30PM 41.3715 -73.4822 236° Southwest  Level Estimated
01:31PM 41.3715 -73.4822 236° Southwest  Level Estimated
01:32PM 41.3715 -73.4822 236° Southwest  Level Estimated
01:33PM 41.3715 -73.4822 236° Southwest  Level Estimated
01:34PM 41.3715 -73.4822 236° Southwest  Level Estimated
01:35PM 41.3715 -73.4822 236° Southwest  Level Estimated